createdAt,value
2023-04-25T00:02:21.364Z,13.17
2023-04-25T00:05:26.263Z,13.59
2023-04-25T00:08:32.274Z,13.54
2023-04-25T00:11:37.025Z,13.25
2023-04-25T00:14:42.216Z,13.64
2023-04-25T00:17:47.473Z,13.81
2023-04-25T00:20:51.464Z,13.91
2023-04-25T00:23:55.397Z,14.19
2023-04-25T00:26:59.292Z,13.92
2023-04-25T00:30:04.501Z,14.03
2023-04-25T00:33:11.372Z,14.36
2023-04-25T00:36:16.710Z,14.60
2023-04-25T00:39:21.354Z,15.01
2023-04-25T00:42:27.248Z,15.42
2023-04-25T00:45:32.160Z,15.83
2023-04-25T00:48:36.714Z,15.76
2023-04-25T00:51:41.046Z,15.58
2023-04-25T00:54:45.153Z,15.76
2023-04-25T00:57:49.819Z,16.17
2023-04-25T01:00:55.007Z,16.13
2023-04-25T01:04:01.390Z,16.61
2023-04-25T01:07:06.032Z,16.99
2023-04-25T01:10:11.687Z,17.01
2023-04-25T01:13:16.635Z,16.91
2023-04-25T01:16:22.145Z,17.47
2023-04-25T01:19:27.711Z,17.26
2023-04-25T01:22:32.551Z,17.67
2023-04-25T01:25:37.061Z,17.89
2023-04-25T01:28:43.231Z,17.56
2023-04-25T01:31:49.308Z,17.63
2023-04-25T01:34:54.319Z,17.94
2023-04-25T01:37:58.318Z,17.93
2023-04-25T01:41:02.363Z,17.64
2023-04-25T01:44:07.403Z,17.77
2023-04-25T01:47:11.892Z,17.60
2023-04-25T01:50:16.852Z,17.53
2023-04-25T01:53:21.306Z,16.28
2023-04-25T01:56:25.702Z,17.18
2023-04-25T01:59:32.233Z,16.73
2023-04-25T02:03:10.373Z,16.42
2023-04-25T02:06:14.479Z,16.04
2023-04-25T02:09:21.983Z,15.65
2023-04-25T02:12:30.573Z,15.71
2023-04-25T02:15:40.597Z,16.38
2023-04-25T02:18:56.233Z,16.52
2023-04-25T02:22:00.626Z,16.48
2023-04-25T02:25:06.491Z,16.67
2023-04-25T02:28:12.218Z,16.66
2023-04-25T02:31:16.706Z,16.82
2023-04-25T02:34:20.819Z,16.84
2023-04-25T02:37:25.212Z,17.13
2023-04-25T02:40:29.738Z,16.92
2023-04-25T02:43:34.448Z,16.99
2023-04-25T02:46:39.928Z,16.73
2023-04-25T02:49:44.077Z,16.58
2023-04-25T02:52:48.398Z,16.44
2023-04-25T02:56:01.786Z,16.17
2023-04-25T02:59:06.349Z,15.91
2023-04-25T03:02:10.740Z,15.90
2023-04-25T03:05:14.783Z,15.63
2023-04-25T03:08:20.193Z,15.61
2023-04-25T03:11:24.599Z,15.48
2023-04-25T03:14:28.833Z,15.80
2023-04-25T03:17:33.367Z,15.96
2023-04-25T03:20:38.214Z,15.65
2023-04-25T03:23:42.268Z,15.73
2023-04-25T03:26:46.169Z,15.65
2023-04-25T03:29:50.714Z,15.93
2023-04-25T03:32:55.736Z,16.03
2023-04-25T03:36:00.182Z,16.33
2023-04-25T03:39:06.317Z,16.40
2023-04-25T03:42:11.818Z,16.40
2023-04-25T03:45:15.771Z,16.18
2023-04-25T03:48:19.800Z,16.04
2023-04-25T03:51:24.725Z,16.30
2023-04-25T03:54:29.302Z,16.73
2023-04-25T03:57:40.554Z,16.52
2023-04-25T04:00:44.537Z,16.53
2023-04-25T04:03:49.153Z,16.72
2023-04-25T04:06:54.414Z,16.64
2023-04-25T04:10:04.487Z,16.49
2023-04-25T04:13:13.352Z,16.42
2023-04-25T04:16:17.590Z,16.69
2023-04-25T04:19:22.683Z,16.64
2023-04-25T04:22:36.812Z,16.23
2023-04-25T04:25:45.575Z,16.41
2023-04-25T04:29:22.688Z,16.67
2023-04-25T04:32:40.640Z,16.93
2023-04-25T04:35:44.803Z,17.09
2023-04-25T04:38:50.066Z,16.76
2023-04-25T04:42:03.821Z,16.93
2023-04-25T04:45:19.862Z,17.11
2023-04-25T04:48:58.147Z,16.85
2023-04-25T04:52:20.212Z,16.72
2023-04-25T04:55:59.788Z,16.61
2023-04-25T04:59:13.442Z,16.20
2023-04-25T05:02:25.187Z,16.12
2023-04-25T05:05:48.635Z,16.38
2023-04-25T05:09:09.090Z,16.56
2023-04-25T05:12:23.382Z,16.46
2023-04-25T05:15:50.168Z,16.31
2023-04-25T05:19:15.380Z,16.41
2023-04-25T05:22:30.189Z,16.29
2023-04-25T05:25:46.380Z,16.34
2023-04-25T05:29:09.838Z,16.23
2023-04-25T05:32:37.487Z,16.17
2023-04-25T05:35:42.364Z,16.06
2023-04-25T05:38:48.219Z,16.29
2023-04-25T05:41:52.290Z,16.09
2023-04-25T05:45:16.774Z,16.14
2023-04-25T05:48:50.665Z,15.93
2023-04-25T05:52:17.909Z,15.97
2023-04-25T05:55:29.660Z,16.42
2023-04-25T05:58:36.022Z,15.91
2023-04-25T06:01:42.160Z,16.04
2023-04-25T06:04:46.961Z,16.19
2023-04-25T06:07:51.023Z,16.04
2023-04-25T06:10:56.015Z,15.95
2023-04-25T06:14:00.956Z,16.06
2023-04-25T06:17:10.303Z,15.92
2023-04-25T06:20:14.722Z,16.00
2023-04-25T06:23:18.765Z,16.14
2023-04-25T06:26:30.014Z,16.30
2023-04-25T06:29:35.015Z,16.12
2023-04-25T06:32:39.434Z,16.13
2023-04-25T06:35:43.974Z,16.09
2023-04-25T06:38:51.035Z,16.03
2023-04-25T06:41:55.556Z,16.08
2023-04-25T06:45:17.902Z,16.19
2023-04-25T06:48:22.404Z,15.99
2023-04-25T06:51:31.624Z,16.09
2023-04-25T06:54:35.604Z,15.82
2023-04-25T06:57:51.268Z,15.83
2023-04-25T07:01:24.477Z,15.67
2023-04-25T07:04:29.132Z,15.57
2023-04-25T07:07:35.362Z,15.73
2023-04-25T07:10:40.132Z,15.76
2023-04-25T07:13:44.138Z,15.68
2023-04-25T07:16:48.643Z,15.12
2023-04-25T07:19:53.309Z,15.43
2023-04-25T07:22:57.986Z,15.39
2023-04-25T07:26:02.918Z,15.47
2023-04-25T07:29:08.104Z,15.49
2023-04-25T07:32:14.082Z,15.29
2023-04-25T07:35:20.590Z,15.49
2023-04-25T07:38:25.664Z,15.48
2023-04-25T07:41:29.927Z,15.29
2023-04-25T07:44:36.410Z,15.18
2023-04-25T07:47:41.302Z,15.47
2023-04-25T07:50:47.141Z,15.12
2023-04-25T07:53:52.591Z,15.02
2023-04-25T07:56:58.873Z,15.10
2023-04-25T08:00:11.211Z,14.80
2023-04-25T08:03:21.200Z,14.64
2023-04-25T08:06:25.706Z,14.56
2023-04-25T08:09:44.802Z,14.39
2023-04-25T08:12:57.921Z,14.59
2023-04-25T08:16:02.466Z,14.54
2023-04-25T08:19:07.896Z,14.53
2023-04-25T08:22:12.868Z,14.43
2023-04-25T08:25:28.312Z,14.50
2023-04-25T08:28:32.950Z,14.16
2023-04-25T08:31:39.713Z,14.43
2023-04-25T08:34:45.989Z,14.23
2023-04-25T08:37:51.377Z,14.00
2023-04-25T08:40:57.171Z,13.92
2023-04-25T08:44:03.140Z,14.10
2023-04-25T08:47:08.599Z,13.88
2023-04-25T08:50:23.023Z,13.91
2023-04-25T08:53:30.855Z,13.78
2023-04-25T08:56:38.112Z,13.58
2023-04-25T08:59:47.183Z,13.13
2023-04-25T09:02:52.078Z,13.26
2023-04-25T09:05:58.194Z,13.13
2023-04-25T09:09:12.835Z,13.15
2023-04-25T09:12:20.847Z,13.31
2023-04-25T09:15:25.999Z,13.11
2023-04-25T09:18:48.638Z,13.30
2023-04-25T09:21:59.488Z,13.18
2023-04-25T09:25:12.784Z,13.23
2023-04-25T09:28:18.206Z,13.05
2023-04-25T09:31:26.507Z,13.09
2023-04-25T09:34:44.942Z,13.20
2023-04-25T09:37:50.531Z,13.11
2023-04-25T09:41:26.148Z,12.74
2023-04-25T09:44:33.411Z,12.92
2023-04-25T09:47:40.756Z,13.06
2023-04-25T09:50:47.268Z,12.85
2023-04-25T09:53:52.809Z,12.99
2023-04-25T09:57:24.941Z,12.86
2023-04-25T10:00:32.644Z,12.65
2023-04-25T10:03:52.530Z,12.58
2023-04-25T10:07:17.301Z,12.55
2023-04-25T10:10:27.449Z,12.36
2023-04-25T10:13:32.957Z,12.72
2023-04-25T10:16:38.487Z,12.57
2023-04-25T10:19:42.975Z,12.44
2023-04-25T10:22:50.139Z,12.86
2023-04-25T10:25:54.900Z,12.63
2023-04-25T10:29:04.971Z,12.33
2023-04-25T10:32:10.382Z,12.32
2023-04-25T10:35:19.731Z,12.49
2023-04-25T10:38:25.267Z,12.03
2023-04-25T10:41:31.388Z,12.11
2023-04-25T10:44:37.230Z,12.20
2023-04-25T10:47:46.910Z,12.14
2023-04-25T10:50:53.324Z,11.92
2023-04-25T10:53:56.874Z,11.97
2023-04-25T10:57:02.007Z,11.89
2023-04-25T11:00:11.496Z,11.96
2023-04-25T11:03:24.004Z,11.88
2023-04-25T11:06:44.866Z,11.76
2023-04-25T11:09:49.847Z,11.68
2023-04-25T11:13:05.069Z,11.51
2023-04-25T11:16:13.154Z,11.77
2023-04-25T11:19:17.891Z,11.78
2023-04-25T11:22:23.784Z,11.61
2023-04-25T11:25:28.956Z,11.43
2023-04-25T11:28:33.080Z,11.62
2023-04-25T11:31:37.670Z,11.63
2023-04-25T11:34:47.113Z,11.76
2023-04-25T11:37:52.156Z,11.70
2023-04-25T11:40:57.386Z,11.44
2023-04-25T11:44:01.950Z,11.49
2023-04-25T11:47:06.370Z,11.57
2023-04-25T11:50:11.646Z,11.44
2023-04-25T11:53:16.570Z,11.23
2023-04-25T11:56:22.562Z,11.35
2023-04-25T11:59:28.449Z,11.18
2023-04-25T12:02:33.576Z,11.15
2023-04-25T12:05:39.646Z,11.25
2023-04-25T12:09:10.909Z,11.28
2023-04-25T12:12:15.318Z,11.23
2023-04-25T12:15:26.990Z,11.12
2023-04-25T12:18:32.215Z,11.13
2023-04-25T12:21:41.219Z,11.23
2023-04-25T12:24:56.266Z,11.06
2023-04-25T12:28:29.133Z,11.07
2023-04-25T12:31:34.865Z,11.00
2023-04-25T12:34:40.556Z,10.96
2023-04-25T12:37:45.234Z,10.99
2023-04-25T12:40:49.783Z,10.74
2023-04-25T12:43:54.376Z,10.69
2023-04-25T12:46:58.822Z,10.79
2023-04-25T12:50:03.579Z,10.79
2023-04-25T12:53:08.242Z,10.67
2023-04-25T12:56:13.059Z,10.56
2023-04-25T12:59:17.716Z,10.54
2023-04-25T13:02:22.553Z,10.43
2023-04-25T13:05:28.139Z,10.32
2023-04-25T13:08:32.531Z,10.37
2023-04-25T13:11:37.408Z,10.53
2023-04-25T13:14:41.527Z,10.41
2023-04-25T13:17:45.553Z,10.42
2023-04-25T13:20:49.936Z,10.44
2023-04-25T13:23:55.334Z,10.45
2023-04-25T13:27:00.279Z,10.43
2023-04-25T13:30:11.258Z,10.39
2023-04-25T13:33:16.690Z,10.44
2023-04-25T13:36:21.191Z,10.37
2023-04-25T13:39:26.711Z,10.38
2023-04-25T13:42:31.175Z,10.32
2023-04-25T13:45:35.740Z,10.34
2023-04-25T13:48:40.457Z,10.38
2023-04-25T13:51:44.392Z,10.32
2023-04-25T13:54:49.219Z,10.35
2023-04-25T13:57:53.809Z,10.11
2023-04-25T14:00:58.353Z,10.21
2023-04-25T14:04:02.981Z,10.30
2023-04-25T14:07:06.992Z,10.01
2023-04-25T14:10:12.023Z,10.10
2023-04-25T14:13:16.887Z,10.15
2023-04-25T14:16:21.830Z,10.09
2023-04-25T14:19:26.850Z,10.09
2023-04-25T14:22:31.429Z,10.09
2023-04-25T14:25:36.017Z,10.09
2023-04-25T14:28:41.037Z,10.02
2023-04-25T14:31:46.959Z,9.93
2023-04-25T14:34:51.466Z,10.12
2023-04-25T14:37:57.166Z,10.20
2023-04-25T14:41:01.539Z,9.97
2023-04-25T14:44:05.960Z,9.98
2023-04-25T14:47:10.759Z,9.64
2023-04-25T14:50:17.328Z,9.78
2023-04-25T14:53:21.781Z,9.74
2023-04-25T14:56:26.519Z,9.80
2023-04-25T14:59:31.392Z,9.74
2023-04-25T15:02:36.561Z,9.76
2023-04-25T15:05:42.488Z,9.69
2023-04-25T15:08:47.567Z,9.59
2023-04-25T15:11:53.331Z,9.31
2023-04-25T15:14:57.663Z,9.31
2023-04-25T15:18:02.789Z,8.90
2023-04-25T15:21:07.508Z,9.07
2023-04-25T15:24:11.634Z,8.95
2023-04-25T15:27:15.806Z,8.55
2023-04-25T15:30:21.390Z,8.62
2023-04-25T15:33:25.588Z,8.20
2023-04-25T15:36:30.084Z,8.30
2023-04-25T15:39:46.554Z,6.99
2023-04-25T15:42:56.049Z,8.33
2023-04-25T15:46:00.148Z,7.77
2023-04-25T15:49:04.649Z,7.68
2023-04-25T15:52:09.402Z,7.85
2023-04-25T15:55:14.564Z,7.72
2023-04-25T15:58:19.134Z,7.81
2023-04-25T16:01:25.378Z,7.72
2023-04-25T16:04:36.144Z,7.74
2023-04-25T16:07:41.927Z,8.00
2023-04-25T16:10:46.015Z,7.21
2023-04-25T16:13:50.988Z,7.30
2023-04-25T16:16:55.701Z,7.28
2023-04-25T16:20:02.642Z,7.42
2023-04-25T16:23:06.776Z,7.13
2023-04-25T16:26:11.194Z,7.03
2023-04-25T16:29:18.652Z,7.18
2023-04-25T16:32:23.072Z,7.24
2023-04-25T16:35:31.213Z,7.13
2023-04-25T16:38:35.936Z,7.05
2023-04-25T16:41:40.409Z,6.81
2023-04-25T16:44:45.786Z,6.55
2023-04-25T16:47:50.424Z,6.70
2023-04-25T16:50:55.599Z,6.67
2023-04-25T16:54:03.014Z,6.30
2023-04-25T16:57:11.369Z,5.97
2023-04-25T17:00:16.907Z,5.82
2023-04-25T17:03:21.966Z,5.52
2023-04-25T17:06:26.726Z,5.35
2023-04-25T17:09:31.496Z,5.60
2023-04-25T17:12:36.165Z,4.89
2023-04-25T17:15:40.944Z,5.05
2023-04-25T17:18:45.458Z,5.32
2023-04-25T17:21:49.707Z,5.05
2023-04-25T17:24:54.937Z,5.01
2023-04-25T17:28:00.582Z,5.00
2023-04-25T17:31:05.136Z,5.10
2023-04-25T17:34:10.673Z,4.75
2023-04-25T17:37:17.255Z,4.89
2023-04-25T17:40:22.181Z,4.85
2023-04-25T17:43:28.516Z,5.06
2023-04-25T17:46:33.110Z,4.75
2023-04-25T17:49:37.673Z,4.13
2023-04-25T17:52:42.701Z,4.18
2023-04-25T17:55:47.417Z,3.95
2023-04-25T17:58:52.831Z,3.91
2023-04-25T18:01:59.234Z,3.86
2023-04-25T18:05:09.964Z,3.85
2023-04-25T18:08:15.414Z,3.54
2023-04-25T18:11:20.086Z,3.69
2023-04-25T18:14:25.691Z,3.64
2023-04-25T18:17:30.270Z,3.55
2023-04-25T18:20:34.586Z,3.58
2023-04-25T18:23:39.559Z,3.71
2023-04-25T18:26:44.207Z,3.26
2023-04-25T18:29:48.467Z,3.80
2023-04-25T18:32:53.009Z,3.79
2023-04-25T18:35:59.895Z,3.31
2023-04-25T18:39:21.428Z,3.12
2023-04-25T18:42:27.048Z,2.84
2023-04-25T18:45:31.486Z,2.94
2023-04-25T18:48:35.967Z,2.67
2023-04-25T18:51:40.312Z,2.68
2023-04-25T18:54:45.577Z,2.88
2023-04-25T18:57:50.400Z,3.01
2023-04-25T19:00:55.157Z,3.28
2023-04-25T19:04:00.153Z,3.30
2023-04-25T19:07:05.024Z,2.92
2023-04-25T19:10:10.013Z,3.31
2023-04-25T19:13:15.116Z,3.07
2023-04-25T19:16:20.447Z,3.20
2023-04-25T19:19:24.656Z,3.38
2023-04-25T19:22:29.944Z,3.17
2023-04-25T19:25:35.643Z,3.22
2023-04-25T19:28:39.755Z,2.91
2023-04-25T19:31:46.328Z,3.08
2023-04-25T19:34:51.182Z,3.05
2023-04-25T19:37:55.603Z,3.00
2023-04-25T19:41:00.273Z,3.24
2023-04-25T19:44:07.754Z,2.84
2023-04-25T19:47:12.183Z,2.74
2023-04-25T19:50:17.100Z,3.06
2023-04-25T19:53:21.920Z,3.05
2023-04-25T19:56:27.344Z,3.02
2023-04-25T19:59:31.408Z,3.02
2023-04-25T20:02:37.781Z,3.17
2023-04-25T20:05:42.564Z,3.68
2023-04-25T20:08:48.216Z,3.71
2023-04-25T20:11:53.061Z,3.67
2023-04-25T20:14:57.618Z,3.82
2023-04-25T20:18:02.311Z,3.84
2023-04-25T20:21:08.570Z,3.35
2023-04-25T20:24:12.941Z,3.62
2023-04-25T20:27:17.421Z,3.59
2023-04-25T20:30:22.264Z,3.53
2023-04-25T20:33:26.985Z,3.59
2023-04-25T20:36:32.981Z,3.39
2023-04-25T20:39:37.327Z,3.58
2023-04-25T20:42:42.158Z,3.57
2023-04-25T20:45:46.615Z,3.82
2023-04-25T20:48:53.323Z,3.89
2023-04-25T20:52:23.569Z,3.60
2023-04-25T20:55:28.499Z,3.56
2023-04-25T20:58:33.247Z,3.65
2023-04-25T21:01:37.897Z,3.56
2023-04-25T21:04:45.703Z,3.57
2023-04-25T21:07:50.977Z,3.59
2023-04-25T21:10:56.013Z,3.87
2023-04-25T21:14:00.694Z,4.27
2023-04-25T21:17:05.668Z,4.13
2023-04-25T21:20:11.960Z,4.26
2023-04-25T21:23:17.694Z,4.58
2023-04-25T21:26:22.976Z,4.11
2023-04-25T21:29:27.456Z,3.97
2023-04-25T21:32:32.011Z,4.22
2023-04-25T21:35:36.741Z,4.66
2023-04-25T21:38:41.150Z,4.53
2023-04-25T21:41:45.836Z,5.08
2023-04-25T21:44:50.807Z,5.31
2023-04-25T21:47:55.827Z,4.94
2023-04-25T21:51:00.390Z,4.91
2023-04-25T21:54:06.584Z,5.22
2023-04-25T21:57:11.920Z,5.23
2023-04-25T22:00:25.323Z,5.77
2023-04-25T22:03:29.616Z,5.61
2023-04-25T22:06:34.408Z,5.62
2023-04-25T22:09:51.394Z,6.42
2023-04-25T22:12:59.860Z,6.68
2023-04-25T22:16:05.292Z,6.72
2023-04-25T22:19:10.498Z,7.60
2023-04-25T22:22:15.501Z,7.86
2023-04-25T22:25:20.396Z,7.51
2023-04-25T22:28:25.058Z,7.22
2023-04-25T22:31:29.887Z,7.18
2023-04-25T22:34:35.132Z,7.64
2023-04-25T22:37:40.099Z,7.49
2023-04-25T22:40:44.352Z,7.84
2023-04-25T22:43:48.286Z,7.81
2023-04-25T22:46:52.236Z,7.99
2023-04-25T22:49:58.635Z,8.38
2023-04-25T22:53:04.911Z,9.25
2023-04-25T22:56:10.952Z,9.03
2023-04-25T22:59:16.473Z,8.94
2023-04-25T23:02:21.123Z,9.55
2023-04-25T23:05:25.859Z,9.75
2023-04-25T23:08:30.324Z,9.07
2023-04-25T23:11:34.968Z,8.82
2023-04-25T23:14:39.359Z,8.74
2023-04-25T23:17:44.387Z,9.51
2023-04-25T23:20:49.003Z,9.41
2023-04-25T23:23:53.517Z,9.65
2023-04-25T23:26:58.057Z,9.41
2023-04-25T23:30:02.221Z,10.40
2023-04-25T23:33:08.479Z,11.23
2023-04-25T23:36:23.078Z,11.32
2023-04-25T23:39:28.571Z,10.96
2023-04-25T23:42:32.710Z,10.98
2023-04-25T23:45:37.298Z,12.01
2023-04-25T23:48:42.191Z,14.03
2023-04-25T23:51:47.209Z,14.62
2023-04-25T23:54:51.995Z,15.67
2023-04-25T23:57:56.437Z,16.14
